createdAt,value
2018-12-02T00:00:21.521Z,1005.36
2018-12-02T00:01:19.829Z,1005.26
2018-12-02T00:02:22.250Z,1005.21
2018-12-02T00:03:19.760Z,1005.15
2018-12-02T00:04:27.843Z,1005.11
2018-12-02T00:05:19.723Z,1005.11
2018-12-02T00:06:19.712Z,1005.10
2018-12-02T00:07:19.670Z,1005.03
2018-12-02T00:08:20.364Z,1005.03
2018-12-02T00:09:20.355Z,1005.04
2018-12-02T00:10:19.674Z,1005.05
2018-12-02T00:11:22.703Z,1005.06
2018-12-02T00:12:19.680Z,1005.04
2018-12-02T00:13:19.949Z,1004.99
2018-12-02T00:14:19.625Z,1004.98
2018-12-02T00:15:19.636Z,1004.92
2018-12-02T00:16:19.693Z,1005.00
2018-12-02T00:17:19.587Z,1004.92
2018-12-02T00:18:19.675Z,1005.00
2018-12-02T00:19:20.988Z,1004.96
2018-12-02T00:20:19.666Z,1004.92
2018-12-02T00:21:20.808Z,1004.90
2018-12-02T00:22:21.726Z,1004.97
2018-12-02T00:23:19.513Z,1004.88
2018-12-02T00:24:19.800Z,1004.88
2018-12-02T00:25:19.530Z,1004.95
2018-12-02T00:26:20.184Z,1004.88
2018-12-02T00:27:26.281Z,1004.92
2018-12-02T00:28:19.509Z,1004.89
2018-12-02T00:29:19.478Z,1004.94
2018-12-02T00:30:19.478Z,1004.91
2018-12-02T00:31:19.443Z,1004.83
2018-12-02T00:32:19.438Z,1004.80
2018-12-02T00:33:19.401Z,1004.81
2018-12-02T00:34:19.465Z,1004.76
2018-12-02T00:35:19.412Z,1004.83
2018-12-02T00:36:20.270Z,1004.83
2018-12-02T00:37:19.507Z,1004.82
2018-12-02T00:38:19.384Z,1004.82
2018-12-02T00:39:19.355Z,1004.80
2018-12-02T00:40:19.391Z,1004.81
2018-12-02T00:41:21.679Z,1004.80
2018-12-02T00:42:19.314Z,1004.78
2018-12-02T00:43:19.342Z,1004.78
2018-12-02T00:44:19.634Z,1004.80
2018-12-02T00:45:19.309Z,1004.80
2018-12-02T00:46:19.293Z,1004.80
2018-12-02T00:47:19.327Z,1004.77
2018-12-02T00:48:19.313Z,1004.76
2018-12-02T00:49:19.265Z,1004.79
2018-12-02T00:50:19.291Z,1004.80
2018-12-02T00:51:19.374Z,1004.87
2018-12-02T00:52:19.314Z,1004.83
2018-12-02T00:53:19.214Z,1004.81
2018-12-02T00:54:19.178Z,1004.79
2018-12-02T00:55:19.192Z,1004.81
2018-12-02T00:56:20.685Z,1004.79
2018-12-02T00:57:19.389Z,1004.75
2018-12-02T00:58:19.187Z,1004.75
2018-12-02T00:59:19.223Z,1004.73
2018-12-02T01:00:19.167Z,1004.71
2018-12-02T01:01:19.140Z,1004.69
2018-12-02T01:02:19.111Z,1004.67
2018-12-02T01:03:19.097Z,1004.70
2018-12-02T01:04:19.176Z,1004.68
2018-12-02T01:05:19.081Z,1004.69
2018-12-02T01:06:19.082Z,1004.71
2018-12-02T01:07:19.055Z,1004.65
2018-12-02T01:08:19.133Z,1004.69
2018-12-02T01:09:19.062Z,1004.65
2018-12-02T01:10:19.060Z,1004.63
2018-12-02T01:11:19.011Z,1004.65
2018-12-02T01:12:18.997Z,1004.69
2018-12-02T01:13:18.992Z,1004.68
2018-12-02T01:14:19.844Z,1004.68
2018-12-02T01:15:19.000Z,1004.70
2018-12-02T01:16:18.958Z,1004.68
2018-12-02T01:17:18.950Z,1004.67
2018-12-02T01:18:18.963Z,1004.67
2018-12-02T01:19:19.012Z,1004.62
2018-12-02T01:20:18.970Z,1004.57
2018-12-02T01:21:19.022Z,1004.57
2018-12-02T01:22:18.919Z,1004.53
2018-12-02T01:23:18.894Z,1004.55
2018-12-02T01:24:18.887Z,1004.59
2018-12-02T01:25:18.910Z,1004.52
2018-12-02T01:26:18.891Z,1004.51
2018-12-02T01:27:18.858Z,1004.50
2018-12-02T01:28:18.981Z,1004.48
2018-12-02T01:29:18.834Z,1004.46
2018-12-02T01:30:18.851Z,1004.46
2018-12-02T01:31:18.868Z,1004.47
2018-12-02T01:32:18.888Z,1004.41
2018-12-02T01:33:18.765Z,1004.35
2018-12-02T01:34:19.036Z,1004.34
2018-12-02T01:35:18.764Z,1004.35
2018-12-02T01:36:18.757Z,1004.33
2018-12-02T01:37:18.725Z,1004.33
2018-12-02T01:38:18.746Z,1004.33
2018-12-02T01:39:18.734Z,1004.28
2018-12-02T01:40:18.689Z,1004.32
2018-12-02T01:41:18.727Z,1004.29
2018-12-02T01:42:18.690Z,1004.29
2018-12-02T01:43:18.800Z,1004.27
2018-12-02T01:44:18.796Z,1004.24
2018-12-02T01:45:20.955Z,1004.25
2018-12-02T01:46:18.633Z,1004.22
2018-12-02T01:47:18.682Z,1004.20
2018-12-02T01:48:18.671Z,1004.24
2018-12-02T01:49:18.610Z,1004.20
2018-12-02T01:50:18.587Z,1004.17
2018-12-02T01:51:18.607Z,1004.13
2018-12-02T01:52:19.128Z,1004.15
2018-12-02T01:53:18.571Z,1004.09
2018-12-02T01:54:18.623Z,1004.08
2018-12-02T01:55:18.580Z,1004.12
2018-12-02T01:56:18.641Z,1004.09
2018-12-02T01:57:18.510Z,1004.06
2018-12-02T01:58:18.748Z,1003.97
2018-12-02T01:59:18.527Z,1003.92
2018-12-02T02:00:18.539Z,1003.98
2018-12-02T02:01:18.474Z,1004.00
2018-12-02T02:02:18.500Z,1003.89
2018-12-02T02:03:18.463Z,1003.88
2018-12-02T02:04:18.483Z,1003.84
2018-12-02T02:05:18.514Z,1003.80
2018-12-02T02:06:18.417Z,1003.77
2018-12-02T02:07:18.432Z,1003.76
2018-12-02T02:08:18.437Z,1003.74
2018-12-02T02:09:18.386Z,1003.73
2018-12-02T02:10:18.390Z,1003.72
2018-12-02T02:11:18.372Z,1003.71
2018-12-02T02:12:18.361Z,1003.71
2018-12-02T02:13:18.369Z,1003.63
2018-12-02T02:14:18.354Z,1003.64
2018-12-02T02:15:18.392Z,1003.63
2018-12-02T02:16:18.324Z,1003.68
2018-12-02T02:17:18.290Z,1003.67
2018-12-02T02:18:18.297Z,1003.59
2018-12-02T02:19:18.293Z,1003.54
2018-12-02T02:20:18.275Z,1003.59
2018-12-02T02:21:18.277Z,1003.59
2018-12-02T02:22:18.266Z,1003.60
2018-12-02T02:23:18.231Z,1003.54
2018-12-02T02:24:18.217Z,1003.59
2018-12-02T02:25:18.229Z,1003.62
2018-12-02T02:26:18.217Z,1003.60
2018-12-02T02:27:18.169Z,1003.61
2018-12-02T02:28:18.198Z,1003.56
2018-12-02T02:29:18.206Z,1003.57
2018-12-02T02:30:18.217Z,1003.54
2018-12-02T02:31:18.141Z,1003.56
2018-12-02T02:32:18.184Z,1003.51
2018-12-02T02:33:18.142Z,1003.48
2018-12-02T02:34:18.118Z,1003.46
2018-12-02T02:35:18.136Z,1003.40
2018-12-02T02:36:18.360Z,1003.35
2018-12-02T02:37:18.139Z,1003.37
2018-12-02T02:38:18.109Z,1003.28
2018-12-02T02:39:18.066Z,1003.26
2018-12-02T02:40:18.078Z,1003.20
2018-12-02T02:41:18.039Z,1003.13
2018-12-02T02:42:18.024Z,1003.03
2018-12-02T02:43:18.037Z,1003.06
2018-12-02T02:44:18.048Z,1003.00
2018-12-02T02:45:18.054Z,1003.05
2018-12-02T02:46:17.982Z,1003.01
2018-12-02T02:47:17.968Z,1003.03
2018-12-02T02:48:18.018Z,1003.00
2018-12-02T02:49:18.004Z,1002.91
2018-12-02T02:50:17.951Z,1002.87
2018-12-02T02:51:17.988Z,1002.92
2018-12-02T02:52:17.921Z,1002.94
2018-12-02T02:53:17.932Z,1002.95
2018-12-02T02:54:26.774Z,1002.92
2018-12-02T02:55:17.881Z,1002.94
2018-12-02T02:56:17.891Z,1002.93
2018-12-02T02:57:17.848Z,1002.95
2018-12-02T02:58:17.848Z,1002.94
2018-12-02T02:59:17.837Z,1002.89
2018-12-02T03:00:17.843Z,1002.92
2018-12-02T03:01:17.809Z,1002.90
2018-12-02T03:02:17.824Z,1002.90
2018-12-02T03:03:17.776Z,1002.87
2018-12-02T03:04:17.771Z,1002.83
2018-12-02T03:05:17.785Z,1002.85
2018-12-02T03:06:17.753Z,1002.79
2018-12-02T03:07:17.754Z,1002.81
2018-12-02T03:08:17.732Z,1002.84
2018-12-02T03:09:17.765Z,1002.79
2018-12-02T03:10:17.713Z,1002.81
2018-12-02T03:11:17.755Z,1002.79
2018-12-02T03:12:17.741Z,1002.77
2018-12-02T03:13:17.773Z,1002.74
2018-12-02T03:14:17.673Z,1002.74
2018-12-02T03:15:17.677Z,1002.74
2018-12-02T03:16:17.738Z,1002.71
2018-12-02T03:17:17.657Z,1002.70
2018-12-02T03:18:17.676Z,1002.71
2018-12-02T03:19:17.663Z,1002.64
2018-12-02T03:20:17.655Z,1002.70
2018-12-02T03:21:17.611Z,1002.74
2018-12-02T03:22:17.689Z,1002.69
2018-12-02T03:23:17.594Z,1002.64
2018-12-02T03:24:17.593Z,1002.65
2018-12-02T03:25:17.553Z,1002.67
2018-12-02T03:26:17.580Z,1002.67
2018-12-02T03:27:17.561Z,1002.63
2018-12-02T03:28:17.550Z,1002.62
2018-12-02T03:29:17.513Z,1002.64
2018-12-02T03:30:17.502Z,1002.60
2018-12-02T03:31:17.516Z,1002.56
2018-12-02T03:32:17.528Z,1002.59
2018-12-02T03:33:17.531Z,1002.62
2018-12-02T03:34:17.453Z,1002.58
2018-12-02T03:35:17.437Z,1002.56
2018-12-02T03:36:17.468Z,1002.55
2018-12-02T03:37:17.434Z,1002.54
2018-12-02T03:38:17.436Z,1002.53
2018-12-02T03:39:17.442Z,1002.52
2018-12-02T03:40:17.401Z,1002.52
2018-12-02T03:41:17.398Z,1002.41
2018-12-02T03:42:17.379Z,1002.39
2018-12-02T03:43:17.365Z,1002.40
2018-12-02T03:44:17.396Z,1002.35
2018-12-02T03:45:17.359Z,1002.35
2018-12-02T03:46:17.334Z,1002.31
2018-12-02T03:47:17.318Z,1002.34
2018-12-02T03:48:17.357Z,1002.31
2018-12-02T03:49:17.300Z,1002.33
2018-12-02T03:50:18.005Z,1002.30
2018-12-02T03:51:17.317Z,1002.29
2018-12-02T03:52:17.272Z,1002.29
2018-12-02T03:53:17.264Z,1002.26
2018-12-02T03:54:17.248Z,1002.24
2018-12-02T03:55:17.251Z,1002.25
2018-12-02T03:56:17.219Z,1002.22
2018-12-02T03:57:17.252Z,1002.21
2018-12-02T03:58:17.203Z,1002.15
2018-12-02T03:59:17.198Z,1002.26
2018-12-02T04:00:17.201Z,1002.16
2018-12-02T04:01:17.223Z,1002.14
2018-12-02T04:02:17.169Z,1002.15
2018-12-02T04:03:17.142Z,1002.14
2018-12-02T04:04:17.187Z,1002.06
2018-12-02T04:05:17.156Z,1002.01
2018-12-02T04:06:17.137Z,1002.02
2018-12-02T04:07:17.107Z,1002.01
2018-12-02T04:08:17.093Z,1002.02
2018-12-02T04:09:17.078Z,1002.02
2018-12-02T04:10:17.115Z,1002.01
2018-12-02T04:11:17.078Z,1002.02
2018-12-02T04:12:17.100Z,1002.08
2018-12-02T04:13:17.028Z,1002.02
2018-12-02T04:14:17.033Z,1002.03
2018-12-02T04:15:17.031Z,1001.96
2018-12-02T04:16:17.020Z,1001.95
2018-12-02T04:17:17.009Z,1001.87
2018-12-02T04:18:17.005Z,1001.89
2018-12-02T04:19:17.010Z,1001.88
2018-12-02T04:20:16.953Z,1001.87
2018-12-02T04:21:16.957Z,1001.90
2018-12-02T04:22:16.976Z,1001.88
2018-12-02T04:23:16.943Z,1001.82
2018-12-02T04:24:16.925Z,1001.85
2018-12-02T04:25:16.907Z,1001.80
2018-12-02T04:26:16.896Z,1001.83
2018-12-02T04:27:16.896Z,1001.84
2018-12-02T04:28:16.912Z,1001.79
2018-12-02T04:29:16.870Z,1001.77
2018-12-02T04:30:16.848Z,1001.74
2018-12-02T04:31:16.872Z,1001.69
2018-12-02T04:32:16.835Z,1001.64
2018-12-02T04:33:16.861Z,1001.55
2018-12-02T04:34:16.868Z,1001.53
2018-12-02T04:35:16.841Z,1001.48
2018-12-02T04:36:16.862Z,1001.41
2018-12-02T04:37:16.797Z,1001.35
2018-12-02T04:38:16.774Z,1001.30
2018-12-02T04:39:16.793Z,1001.23
2018-12-02T04:40:16.783Z,1001.34
2018-12-02T04:41:16.811Z,1001.32
2018-12-02T04:42:16.842Z,1001.29
2018-12-02T04:43:16.741Z,1001.31
2018-12-02T04:44:16.714Z,1001.27
2018-12-02T04:45:16.724Z,1001.25
2018-12-02T04:46:16.693Z,1001.23
2018-12-02T04:47:16.669Z,1001.23
2018-12-02T04:48:16.670Z,1001.20
2018-12-02T04:49:16.657Z,1001.20
2018-12-02T04:50:16.716Z,1001.19
2018-12-02T04:51:16.730Z,1001.16
2018-12-02T04:52:16.639Z,1001.11
2018-12-02T04:53:16.616Z,1001.09
2018-12-02T04:54:16.648Z,1001.03
2018-12-02T04:55:16.604Z,1001.00
2018-12-02T04:56:16.599Z,1000.98
2018-12-02T04:57:16.573Z,1000.94
2018-12-02T04:58:16.577Z,1001.02
2018-12-02T04:59:16.582Z,1000.94
2018-12-02T05:00:16.522Z,1000.89
2018-12-02T05:01:16.597Z,1000.92
2018-12-02T05:02:16.519Z,1000.98
2018-12-02T05:03:16.624Z,1000.92
2018-12-02T05:04:16.518Z,1000.90
2018-12-02T05:05:16.771Z,1000.91
2018-12-02T05:06:16.486Z,1000.92
2018-12-02T05:07:16.532Z,1000.94
2018-12-02T05:08:16.466Z,1000.90
2018-12-02T05:09:16.452Z,1000.93
2018-12-02T05:10:25.821Z,1000.92
2018-12-02T05:11:16.402Z,1000.86
2018-12-02T05:12:16.394Z,1000.81
2018-12-02T05:13:16.398Z,1000.79
2018-12-02T05:14:16.366Z,1000.87
2018-12-02T05:15:16.367Z,1000.83
2018-12-02T05:16:16.365Z,1000.87
2018-12-02T05:17:16.343Z,1000.86
2018-12-02T05:18:16.484Z,1000.88
2018-12-02T05:19:25.378Z,1000.90
2018-12-02T05:20:23.848Z,1000.92
2018-12-02T05:21:26.359Z,1000.92
2018-12-02T05:22:25.585Z,1000.90
2018-12-02T05:23:25.491Z,1000.92
2018-12-02T05:24:16.277Z,1000.91
2018-12-02T05:25:17.855Z,1000.89
2018-12-02T05:26:16.452Z,1000.87
2018-12-02T05:27:16.342Z,1000.86
2018-12-02T05:28:16.220Z,1000.88
2018-12-02T05:29:16.219Z,1000.90
2018-12-02T05:30:16.215Z,1000.88
2018-12-02T05:31:16.222Z,1000.85
2018-12-02T05:32:16.737Z,1000.84
2018-12-02T05:33:16.233Z,1000.86
2018-12-02T05:34:16.172Z,1000.86
2018-12-02T05:35:16.161Z,1000.88
2018-12-02T05:36:16.146Z,1000.90
2018-12-02T05:37:16.155Z,1000.91
2018-12-02T05:38:16.127Z,1000.90
2018-12-02T05:39:26.519Z,1000.76
2018-12-02T05:40:26.557Z,1000.79
2018-12-02T05:41:24.645Z,1000.80
2018-12-02T05:42:26.126Z,1000.70
2018-12-02T05:43:26.176Z,1000.68
2018-12-02T05:44:25.218Z,1000.60
2018-12-02T05:45:25.824Z,1000.65
2018-12-02T05:46:16.426Z,1000.62
2018-12-02T05:47:31.253Z,1000.60
2018-12-02T05:48:25.810Z,1000.62
2018-12-02T05:49:25.321Z,1000.58
2018-12-02T05:50:15.983Z,1000.50
2018-12-02T05:51:16.011Z,1000.51
2018-12-02T05:52:15.984Z,1000.47
2018-12-02T05:53:24.648Z,1000.42
2018-12-02T05:54:15.960Z,1000.47
2018-12-02T05:55:16.062Z,1000.46
2018-12-02T05:56:15.941Z,1000.42
2018-12-02T05:57:16.223Z,1000.46
2018-12-02T05:58:16.889Z,1000.47
2018-12-02T05:59:15.942Z,1000.40
2018-12-02T06:00:15.883Z,1000.35
2018-12-02T06:01:15.889Z,1000.33
2018-12-02T06:02:15.875Z,1000.37
2018-12-02T06:03:17.550Z,1000.41
2018-12-02T06:04:15.906Z,1000.40
2018-12-02T06:05:16.082Z,1000.35
2018-12-02T06:06:15.980Z,1000.31
2018-12-02T06:07:15.956Z,1000.33
2018-12-02T06:08:16.475Z,1000.27
2018-12-02T06:09:18.239Z,1000.28
2018-12-02T06:10:15.981Z,1000.26
2018-12-02T06:11:17.522Z,1000.15
2018-12-02T06:12:17.921Z,1000.18
2018-12-02T06:13:16.843Z,1000.12
2018-12-02T06:14:15.771Z,1000.14
2018-12-02T06:15:15.814Z,1000.14
2018-12-02T06:16:15.940Z,1000.17
2018-12-02T06:17:15.764Z,1000.14
2018-12-02T06:18:15.933Z,1000.14
2018-12-02T06:19:15.892Z,1000.18
2018-12-02T06:20:15.803Z,1000.24
2018-12-02T06:21:15.753Z,1000.29
2018-12-02T06:22:15.784Z,1000.35
2018-12-02T06:23:15.744Z,1000.39
2018-12-02T06:24:16.323Z,1000.41
2018-12-02T06:25:16.829Z,1000.37
2018-12-02T06:26:15.688Z,1000.41
2018-12-02T06:27:15.885Z,1000.38
2018-12-02T06:28:18.041Z,1000.40
2018-12-02T06:29:15.701Z,1000.42
2018-12-02T06:30:15.820Z,1000.46
2018-12-02T06:31:15.566Z,1000.45
2018-12-02T06:32:15.770Z,1000.46
2018-12-02T06:33:18.000Z,1000.46
2018-12-02T06:34:15.913Z,1000.47
2018-12-02T06:35:16.554Z,1000.44
2018-12-02T06:36:16.314Z,1000.43
2018-12-02T06:37:16.625Z,1000.42
2018-12-02T06:38:17.655Z,1000.37
2018-12-02T06:39:15.674Z,1000.30
2018-12-02T06:40:16.269Z,1000.27
2018-12-02T06:41:24.430Z,1000.27
2018-12-02T06:42:16.340Z,1000.19
2018-12-02T06:44:45.461Z,1000.14
2018-12-02T06:45:44.631Z,1000.18
2018-12-02T06:46:44.361Z,1000.17
2018-12-02T06:47:44.679Z,1000.13
2018-12-02T06:48:44.233Z,1000.21
2018-12-02T06:49:44.254Z,1000.24
2018-12-02T06:50:44.228Z,1000.27
2018-12-02T06:51:44.187Z,1000.23
2018-12-02T06:52:54.326Z,1000.24
2018-12-02T06:53:44.180Z,1000.19
2018-12-02T06:54:44.162Z,1000.28
2018-12-02T06:55:44.163Z,1000.29
2018-12-02T06:56:44.147Z,1000.34
2018-12-02T06:57:44.154Z,1000.33
2018-12-02T06:58:44.124Z,1000.29
2018-12-02T06:59:44.132Z,1000.15
2018-12-02T07:00:44.106Z,1000.08
2018-12-02T07:01:44.077Z,1000.03
2018-12-02T07:02:44.120Z,1000.00
2018-12-02T07:03:44.262Z,999.96
2018-12-02T07:04:44.103Z,1000.01
2018-12-02T07:05:44.133Z,1000.01
2018-12-02T07:06:44.075Z,1000.02
2018-12-02T07:07:44.081Z,1000.02
2018-12-02T07:08:44.042Z,1000.04
2018-12-02T07:09:44.175Z,1000.03
2018-12-02T07:10:44.014Z,999.94
2018-12-02T07:11:44.028Z,999.93
2018-12-02T07:12:43.999Z,999.87
2018-12-02T07:13:44.141Z,999.88
2018-12-02T07:14:43.971Z,999.87
2018-12-02T07:15:44.078Z,999.82
2018-12-02T07:16:44.206Z,999.78
2018-12-02T07:17:44.024Z,999.82
2018-12-02T07:18:43.983Z,999.82
2018-12-02T07:19:44.005Z,999.83
2018-12-02T07:20:43.919Z,999.77
2018-12-02T07:21:43.915Z,999.78
2018-12-02T07:22:43.904Z,999.70
2018-12-02T07:23:43.873Z,999.71
2018-12-02T07:24:43.854Z,999.66
2018-12-02T07:25:43.864Z,999.62
2018-12-02T07:26:43.890Z,999.62
2018-12-02T07:27:43.821Z,999.67
2018-12-02T07:28:43.863Z,999.61
2018-12-02T07:29:43.821Z,999.60
2018-12-02T07:30:44.635Z,999.56
2018-12-02T07:31:43.802Z,999.43
2018-12-02T07:32:43.812Z,999.39
2018-12-02T07:33:43.776Z,999.42
2018-12-02T07:34:43.859Z,999.33
2018-12-02T07:35:43.730Z,999.35
2018-12-02T07:36:44.576Z,999.37
2018-12-02T07:37:44.574Z,999.38
2018-12-02T07:38:43.744Z,999.30
2018-12-02T07:39:43.719Z,999.27
2018-12-02T07:40:43.702Z,999.28
2018-12-02T07:41:43.728Z,999.31
2018-12-02T07:42:43.749Z,999.30
2018-12-02T07:43:43.684Z,999.37
2018-12-02T07:44:43.730Z,999.34
2018-12-02T07:45:43.651Z,999.28
2018-12-02T07:46:43.625Z,999.17
2018-12-02T07:47:43.602Z,999.08
2018-12-02T07:48:43.590Z,999.04
2018-12-02T07:49:43.644Z,999.05
2018-12-02T07:50:43.610Z,999.02
2018-12-02T07:51:43.585Z,999.00
2018-12-02T07:52:43.695Z,999.00
2018-12-02T07:53:43.568Z,999.03
2018-12-02T07:54:43.604Z,999.04
2018-12-02T07:55:43.539Z,999.12
2018-12-02T07:56:43.555Z,999.04
2018-12-02T07:57:43.494Z,998.92
2018-12-02T07:58:43.517Z,998.92
2018-12-02T07:59:43.461Z,998.97
2018-12-02T08:00:43.528Z,999.03
2018-12-02T08:01:44.078Z,998.98
2018-12-02T08:02:44.081Z,998.98
2018-12-02T08:03:43.472Z,999.01
2018-12-02T08:04:43.563Z,999.01
2018-12-02T08:05:43.517Z,998.98
2018-12-02T08:06:43.560Z,998.94
2018-12-02T08:07:43.661Z,998.93
2018-12-02T08:08:43.621Z,998.92
2018-12-02T08:09:46.715Z,999.01
2018-12-02T08:10:50.316Z,998.87
2018-12-02T08:11:50.967Z,998.90
2018-12-02T08:12:50.197Z,998.79
2018-12-02T08:13:43.462Z,998.85
2018-12-02T08:14:43.458Z,998.83
2018-12-02T08:15:43.453Z,998.76
2018-12-02T08:16:43.435Z,998.78
2018-12-02T08:17:43.352Z,998.83
2018-12-02T08:18:43.448Z,998.79
2018-12-02T08:19:43.469Z,998.78
2018-12-02T08:20:44.001Z,998.80
2018-12-02T08:21:43.287Z,998.69
2018-12-02T08:22:50.978Z,998.73
2018-12-02T08:23:45.386Z,998.71
2018-12-02T08:24:43.459Z,998.69
2018-12-02T08:25:43.294Z,998.67
2018-12-02T08:26:43.210Z,998.71
2018-12-02T08:27:43.321Z,998.69
2018-12-02T08:28:44.320Z,998.62
2018-12-02T08:29:49.164Z,998.63
2018-12-02T08:30:44.042Z,998.62
2018-12-02T08:31:44.080Z,998.62
2018-12-02T08:32:43.222Z,998.52
2018-12-02T08:33:43.846Z,998.67
2018-12-02T08:34:43.668Z,998.63
2018-12-02T08:35:43.223Z,998.61
2018-12-02T08:36:43.777Z,998.62
2018-12-02T08:37:43.606Z,998.66
2018-12-02T08:38:43.765Z,998.64
2018-12-02T08:39:43.066Z,998.63
2018-12-02T08:40:45.601Z,998.63
2018-12-02T08:42:43.759Z,998.57
2018-12-02T08:43:43.676Z,998.56
2018-12-02T08:44:44.397Z,998.56
2018-12-02T08:45:43.646Z,998.49
2018-12-02T08:46:53.994Z,998.55
2018-12-02T08:47:43.579Z,998.57
2018-12-02T08:48:44.430Z,998.54
2018-12-02T08:51:01.418Z,998.51
2018-12-02T08:52:00.669Z,998.50
2018-12-02T08:53:00.689Z,998.45
2018-12-02T08:54:00.741Z,998.50
2018-12-02T08:55:01.048Z,998.55
2018-12-02T08:56:01.032Z,998.55
2018-12-02T08:57:00.678Z,998.52
2018-12-02T08:58:00.710Z,998.45
2018-12-02T08:59:00.711Z,998.43
2018-12-02T09:01:11.704Z,998.46
2018-12-02T09:02:11.693Z,998.43
2018-12-02T09:03:11.679Z,998.42
2018-12-02T09:04:11.657Z,998.39
2018-12-02T09:05:11.655Z,998.41
2018-12-02T09:06:11.635Z,998.39
2018-12-02T09:07:11.652Z,998.36
2018-12-02T09:08:11.619Z,998.41
2018-12-02T09:09:11.623Z,998.36
2018-12-02T09:10:11.623Z,998.31
2018-12-02T09:11:11.590Z,998.27
2018-12-02T09:12:11.592Z,998.35
2018-12-02T09:13:11.594Z,998.31
2018-12-02T09:14:11.546Z,998.28
2018-12-02T09:15:11.544Z,998.24
2018-12-02T09:16:11.553Z,998.26
2018-12-02T09:17:11.576Z,998.20
2018-12-02T09:18:11.544Z,998.20
2018-12-02T09:19:11.523Z,998.17
2018-12-02T09:20:11.504Z,998.22
2018-12-02T09:21:11.494Z,998.13
2018-12-02T09:22:11.545Z,998.08
2018-12-02T09:23:11.479Z,998.11
2018-12-02T09:24:11.452Z,998.13
2018-12-02T09:25:11.462Z,998.16
2018-12-02T09:26:11.452Z,998.17
2018-12-02T09:27:11.444Z,998.08
2018-12-02T09:28:11.404Z,998.01
2018-12-02T09:29:11.419Z,998.06
2018-12-02T09:30:11.411Z,998.11
2018-12-02T09:31:11.428Z,998.11
2018-12-02T09:32:11.411Z,998.04
2018-12-02T09:33:11.404Z,998.06
2018-12-02T09:34:11.358Z,998.08
2018-12-02T09:35:11.346Z,998.03
2018-12-02T09:36:11.326Z,998.01
2018-12-02T09:37:11.327Z,998.00
2018-12-02T09:38:11.337Z,998.03
2018-12-02T09:39:11.363Z,998.01
2018-12-02T09:40:11.311Z,998.03
2018-12-02T09:41:11.286Z,998.00
2018-12-02T09:42:11.300Z,997.95
2018-12-02T09:43:11.275Z,997.96
2018-12-02T09:44:11.338Z,997.91
2018-12-02T09:45:11.251Z,997.89
2018-12-02T09:46:11.236Z,997.86
2018-12-02T09:47:11.242Z,997.86
2018-12-02T09:48:11.205Z,997.80
2018-12-02T09:49:11.201Z,997.82
2018-12-02T09:50:11.199Z,997.81
2018-12-02T09:51:11.185Z,997.79
2018-12-02T09:52:11.190Z,997.78
2018-12-02T09:53:11.153Z,997.74
2018-12-02T09:54:11.174Z,997.75
2018-12-02T09:55:11.148Z,997.67
2018-12-02T09:56:11.118Z,997.64
2018-12-02T09:57:11.093Z,997.62
2018-12-02T09:58:11.154Z,997.59
2018-12-02T09:59:11.103Z,997.61
2018-12-02T10:00:11.114Z,997.55
2018-12-02T10:01:11.094Z,997.57
2018-12-02T10:02:12.164Z,997.58
2018-12-02T10:03:11.041Z,997.60
2018-12-02T10:04:11.027Z,997.56
2018-12-02T10:05:11.024Z,997.52
2018-12-02T10:06:11.037Z,997.47
2018-12-02T10:07:11.009Z,997.51
2018-12-02T10:08:10.993Z,997.47
2018-12-02T10:09:19.597Z,997.47
2018-12-02T10:10:10.961Z,997.46
2018-12-02T10:11:10.957Z,997.46
2018-12-02T10:12:10.981Z,997.40
2018-12-02T10:13:20.099Z,997.44
2018-12-02T10:14:20.148Z,997.38
2018-12-02T10:15:19.183Z,997.35
2018-12-02T10:16:20.183Z,997.36
2018-12-02T10:17:19.749Z,997.33
2018-12-02T10:18:10.883Z,997.28
2018-12-02T10:19:20.251Z,997.30
2018-12-02T10:20:10.844Z,997.31
2018-12-02T10:21:10.851Z,997.26
2018-12-02T10:22:10.833Z,997.23
2018-12-02T10:23:10.842Z,997.20
2018-12-02T10:24:10.815Z,997.26
2018-12-02T10:25:10.797Z,997.18
2018-12-02T10:26:10.796Z,997.16
2018-12-02T10:27:11.069Z,997.18
2018-12-02T10:28:10.788Z,997.17
2018-12-02T10:29:10.807Z,997.13
2018-12-02T10:30:10.762Z,997.12
2018-12-02T10:31:10.758Z,997.12
2018-12-02T10:32:12.496Z,997.08
2018-12-02T10:33:10.726Z,997.05
2018-12-02T10:34:10.721Z,997.05
2018-12-02T10:35:10.749Z,997.05
2018-12-02T10:36:10.679Z,997.07
2018-12-02T10:37:10.677Z,996.96
2018-12-02T10:38:10.679Z,996.94
2018-12-02T10:39:10.662Z,996.99
2018-12-02T10:40:10.675Z,996.94
2018-12-02T10:41:10.640Z,996.92
2018-12-02T10:42:10.612Z,996.94
2018-12-02T10:43:10.633Z,996.85
2018-12-02T10:44:10.690Z,996.84
2018-12-02T10:45:10.592Z,996.89
2018-12-02T10:46:10.604Z,996.79
2018-12-02T10:47:10.576Z,996.87
2018-12-02T10:48:10.566Z,996.83
2018-12-02T10:49:10.550Z,996.77
2018-12-02T10:50:10.564Z,996.78
2018-12-02T10:51:10.546Z,996.82
2018-12-02T10:52:10.532Z,996.78
2018-12-02T10:53:10.550Z,996.74
2018-12-02T10:54:10.531Z,996.74
2018-12-02T10:55:10.518Z,996.75
2018-12-02T10:56:10.545Z,996.71
2018-12-02T10:57:10.483Z,996.69
2018-12-02T10:58:10.488Z,996.67
2018-12-02T10:59:10.458Z,996.71
2018-12-02T11:00:10.460Z,996.66
2018-12-02T11:01:10.442Z,996.64
2018-12-02T11:02:10.429Z,996.60
2018-12-02T11:03:10.414Z,996.60
2018-12-02T11:04:10.399Z,996.52
2018-12-02T11:05:10.424Z,996.54
2018-12-02T11:06:10.419Z,996.58
2018-12-02T11:07:10.375Z,996.48
2018-12-02T11:08:10.379Z,996.54
2018-12-02T11:09:10.397Z,996.48
2018-12-02T11:10:10.377Z,996.46
2018-12-02T11:11:10.373Z,996.48
2018-12-02T11:12:10.332Z,996.46
2018-12-02T11:13:10.317Z,996.43
2018-12-02T11:14:10.571Z,996.41
2018-12-02T11:15:10.277Z,996.41
2018-12-02T11:16:10.304Z,996.37
2018-12-02T11:17:10.268Z,996.40
2018-12-02T11:18:10.253Z,996.38
2018-12-02T11:19:10.242Z,996.33
2018-12-02T11:20:10.218Z,996.32
2018-12-02T11:21:10.247Z,996.32
2018-12-02T11:22:10.208Z,996.30
2018-12-02T11:23:10.205Z,996.35
2018-12-02T11:24:10.441Z,996.27
2018-12-02T11:25:10.185Z,996.27
2018-12-02T11:26:10.171Z,996.30
2018-12-02T11:27:10.160Z,996.27
2018-12-02T11:28:19.422Z,996.23
2018-12-02T11:29:10.147Z,996.26
2018-12-02T11:30:19.989Z,996.24
2018-12-02T11:31:10.109Z,996.21
2018-12-02T11:32:10.100Z,996.14
2018-12-02T11:33:10.093Z,996.13
2018-12-02T11:34:10.061Z,996.12
2018-12-02T11:35:10.108Z,996.10
2018-12-02T11:36:10.057Z,996.14
2018-12-02T11:37:10.045Z,996.13
2018-12-02T11:38:10.044Z,996.13
2018-12-02T11:39:10.037Z,996.16
2018-12-02T11:40:10.044Z,996.11
2018-12-02T11:41:10.043Z,996.10
2018-12-02T11:42:10.058Z,996.07
2018-12-02T11:43:10.004Z,996.05
2018-12-02T11:44:09.996Z,996.08
2018-12-02T11:45:09.984Z,996.08
2018-12-02T11:46:09.944Z,996.11
2018-12-02T11:47:09.940Z,996.13
2018-12-02T11:48:09.925Z,996.08
2018-12-02T11:49:09.923Z,996.08
2018-12-02T11:50:09.913Z,996.12
2018-12-02T11:51:09.920Z,996.02
2018-12-02T11:52:09.878Z,996.08
2018-12-02T11:53:09.879Z,996.05
2018-12-02T11:54:09.878Z,996.04
2018-12-02T11:55:09.892Z,995.98
2018-12-02T11:56:09.867Z,996.03
2018-12-02T11:57:09.838Z,995.95
2018-12-02T11:58:09.872Z,995.97
2018-12-02T11:59:09.828Z,995.97
2018-12-02T12:00:09.947Z,995.93
2018-12-02T12:01:09.817Z,995.95
2018-12-02T12:02:09.821Z,995.88
2018-12-02T12:03:09.769Z,995.84
2018-12-02T12:04:09.771Z,995.85
2018-12-02T12:05:09.755Z,995.79
2018-12-02T12:06:09.758Z,995.84
2018-12-02T12:07:09.826Z,995.82
2018-12-02T12:08:09.745Z,995.74
2018-12-02T12:09:09.777Z,995.76
2018-12-02T12:10:09.725Z,995.75
2018-12-02T12:11:09.720Z,995.76
2018-12-02T12:12:09.718Z,995.78
2018-12-02T12:13:09.714Z,995.75
2018-12-02T12:14:09.692Z,995.78
2018-12-02T12:15:09.663Z,995.71
2018-12-02T12:16:09.633Z,995.74
2018-12-02T12:17:09.627Z,995.74
2018-12-02T12:18:09.741Z,995.75
2018-12-02T12:19:09.629Z,995.74
2018-12-02T12:20:09.620Z,995.70